createdAt,value
2019-04-10T00:00:59.289Z,24.23
2019-04-10T00:03:37.032Z,24.83
2019-04-10T00:06:08.783Z,24.53
2019-04-10T00:08:40.393Z,24.63
2019-04-10T00:11:12.349Z,23.92
2019-04-10T00:13:44.924Z,24.40
2019-04-10T00:16:18.454Z,26.02
2019-04-10T00:18:50.516Z,25.80
2019-04-10T00:21:22.969Z,25.60
2019-04-10T00:23:55.535Z,24.60
2019-04-10T00:26:27.856Z,24.83
2019-04-10T00:29:00.247Z,24.17
2019-04-10T00:31:33.857Z,24.77
2019-04-10T00:34:06.005Z,25.05
2019-04-10T00:36:38.002Z,23.03
2019-04-10T00:39:12.563Z,24.20
2019-04-10T00:41:44.394Z,25.10
2019-04-10T00:44:16.433Z,23.67
2019-04-10T00:46:48.711Z,24.07
2019-04-10T00:49:21.819Z,23.40
2019-04-10T00:51:53.390Z,23.07
2019-04-10T00:54:26.106Z,24.60
2019-04-10T00:56:58.892Z,22.83
2019-04-10T00:59:30.866Z,22.05
2019-04-10T01:02:02.608Z,24.03
2019-04-10T01:04:34.322Z,21.73
2019-04-10T01:07:07.047Z,21.60
2019-04-10T01:09:39.648Z,22.80
2019-04-10T01:12:11.872Z,22.20
2019-04-10T01:14:43.646Z,22.70
2019-04-10T01:17:15.856Z,23.92
2019-04-10T01:19:48.216Z,22.50
2019-04-10T01:22:21.234Z,21.97
2019-04-10T01:24:54.412Z,22.30
2019-04-10T01:27:27.765Z,22.17
2019-04-10T01:30:00.117Z,22.20
2019-04-10T01:32:32.755Z,21.60
2019-04-10T01:35:05.789Z,21.57
2019-04-10T01:37:48.420Z,21.10
2019-04-10T01:40:11.521Z,20.40
2019-04-10T01:42:58.959Z,21.87
2019-04-10T01:45:17.914Z,20.50
2019-04-10T01:47:49.732Z,21.20
2019-04-10T01:50:22.161Z,21.45
2019-04-10T01:52:55.447Z,21.47
2019-04-10T01:55:30.300Z,20.57
2019-04-10T01:58:03.031Z,21.87
2019-04-10T02:00:35.623Z,21.40
2019-04-10T02:03:07.245Z,20.50
2019-04-10T02:05:39.542Z,21.03
2019-04-10T02:08:14.344Z,21.93
2019-04-10T02:10:45.298Z,21.87
2019-04-10T02:13:17.179Z,23.60
2019-04-10T02:15:50.271Z,21.93
2019-04-10T02:18:22.064Z,22.50
2019-04-10T02:20:55.665Z,22.70
2019-04-10T02:23:28.144Z,20.80
2019-04-10T02:25:59.741Z,21.10
2019-04-10T02:28:33.284Z,22.33
2019-04-10T02:31:07.222Z,21.50
2019-04-10T02:33:38.917Z,24.00
2019-04-10T02:36:10.940Z,24.95
2019-04-10T02:38:57.328Z,23.53
2019-04-10T02:41:17.408Z,24.85
2019-04-10T02:43:49.218Z,24.30
2019-04-10T02:46:21.981Z,24.05
2019-04-10T02:48:58.015Z,22.67
2019-04-10T02:51:32.488Z,23.93
2019-04-10T02:54:05.198Z,23.27
2019-04-10T02:56:39.116Z,23.50
2019-04-10T02:59:11.334Z,24.55
2019-04-10T03:01:44.239Z,24.17
2019-04-10T03:04:16.509Z,26.70
2019-04-10T03:06:48.803Z,22.80
2019-04-10T03:09:40.478Z,24.02
2019-04-10T03:11:55.436Z,22.27
2019-04-10T03:14:28.465Z,22.80
2019-04-10T03:17:00.220Z,21.40
2019-04-10T03:19:31.810Z,22.77
2019-04-10T03:22:04.101Z,22.93
2019-04-10T03:24:35.952Z,22.70
2019-04-10T03:27:07.543Z,23.57
2019-04-10T03:29:39.987Z,23.47
2019-04-10T03:32:36.344Z,22.32
2019-04-10T03:35:11.090Z,22.90
2019-04-10T03:37:42.799Z,22.30
2019-04-10T03:40:15.366Z,22.30
2019-04-10T03:42:47.443Z,22.73
2019-04-10T03:45:20.217Z,22.27
2019-04-10T03:47:52.886Z,20.80
2019-04-10T03:50:25.826Z,23.17
2019-04-10T03:52:57.975Z,22.83
2019-04-10T03:55:29.933Z,22.07
2019-04-10T03:58:03.427Z,22.77
2019-04-10T04:00:35.040Z,22.30
2019-04-10T04:03:08.529Z,21.03
2019-04-10T04:05:40.194Z,21.60
2019-04-10T04:08:13.032Z,20.57
2019-04-10T04:10:44.776Z,20.90
2019-04-10T04:13:17.479Z,21.55
2019-04-10T04:15:50.485Z,20.47
2019-04-10T04:18:22.811Z,20.63
2019-04-10T04:20:55.066Z,21.57
2019-04-10T04:23:27.772Z,19.50
2019-04-10T04:26:00.912Z,20.63
2019-04-10T04:28:34.463Z,21.23
2019-04-10T04:31:06.120Z,20.53
2019-04-10T04:33:38.848Z,20.30
2019-04-10T04:36:10.556Z,19.70
2019-04-10T04:38:43.204Z,22.83
2019-04-10T04:41:15.428Z,20.62
2019-04-10T04:43:48.716Z,20.33
2019-04-10T04:46:21.193Z,19.37
2019-04-10T04:48:53.019Z,19.37
2019-04-10T04:51:26.067Z,21.77
2019-04-10T04:53:59.146Z,19.27
2019-04-10T04:56:31.732Z,19.37
2019-04-10T04:59:03.643Z,19.13
2019-04-10T05:01:35.995Z,18.67
2019-04-10T05:04:09.054Z,18.27
2019-04-10T05:06:41.738Z,18.63
2019-04-10T05:09:25.958Z,18.62
2019-04-10T05:11:46.949Z,17.70
2019-04-10T05:14:19.589Z,17.82
2019-04-10T05:16:52.644Z,18.73
2019-04-10T05:19:25.505Z,17.83
2019-04-10T05:21:57.534Z,16.57
2019-04-10T05:24:30.040Z,18.57
2019-04-10T05:27:02.354Z,17.30
2019-04-10T05:29:34.585Z,17.27
2019-04-10T05:32:07.218Z,16.87
2019-04-10T05:34:40.399Z,17.23
2019-04-10T05:37:12.124Z,20.35
2019-04-10T05:39:49.159Z,15.63
2019-04-10T05:42:18.319Z,15.80
2019-04-10T05:44:50.269Z,16.57
2019-04-10T05:47:22.043Z,17.33
2019-04-10T05:49:53.793Z,16.33
2019-04-10T05:52:26.679Z,17.57
2019-04-10T05:54:58.588Z,16.53
2019-04-10T05:57:30.802Z,16.43
2019-04-10T06:00:05.126Z,17.03
2019-04-10T06:02:37.036Z,16.40
2019-04-10T06:05:09.745Z,16.60
2019-04-10T06:07:41.649Z,15.40
2019-04-10T06:10:13.402Z,15.50
2019-04-10T06:12:46.698Z,15.43
2019-04-10T06:15:19.106Z,15.25
2019-04-10T06:17:51.103Z,18.77
2019-04-10T06:20:23.259Z,15.23
2019-04-10T06:22:55.847Z,17.03
2019-04-10T06:25:28.774Z,15.07
2019-04-10T06:28:01.143Z,14.93
2019-04-10T06:30:33.996Z,15.67
2019-04-10T06:33:06.024Z,15.47
2019-04-10T06:35:37.895Z,16.13
2019-04-10T06:38:10.609Z,17.60
2019-04-10T06:40:43.955Z,15.17
2019-04-10T06:43:15.632Z,14.53
2019-04-10T06:45:48.228Z,14.73
2019-04-10T06:48:20.008Z,13.77
2019-04-10T06:50:51.903Z,15.30
2019-04-10T06:53:24.711Z,13.58
2019-04-10T06:55:57.313Z,13.83
2019-04-10T06:58:30.618Z,13.53
2019-04-10T07:01:04.136Z,15.30
2019-04-10T07:03:49.469Z,12.27
2019-04-10T07:06:16.966Z,18.87
2019-04-10T07:08:48.857Z,22.43
2019-04-10T07:11:19.071Z,12.37
2019-04-10T07:13:51.242Z,12.30
2019-04-10T07:16:26.630Z,12.13
2019-04-10T07:18:59.887Z,12.33
2019-04-10T07:21:35.529Z,11.47
2019-04-10T07:24:08.304Z,11.87
2019-04-10T07:26:43.705Z,13.47
2019-04-10T07:29:19.746Z,12.70
2019-04-10T07:31:48.566Z,12.60
2019-04-10T07:34:22.058Z,11.97
2019-04-10T07:36:54.033Z,12.03
2019-04-10T07:39:29.229Z,12.27
2019-04-10T07:41:59.992Z,12.43
2019-04-10T07:44:32.615Z,13.00
2019-04-10T07:47:04.759Z,12.27
2019-04-10T07:49:39.428Z,12.55
2019-04-10T07:52:10.561Z,12.25
2019-04-10T07:54:44.610Z,17.77
2019-04-10T07:57:16.119Z,11.88
2019-04-10T07:59:47.732Z,11.63
2019-04-10T08:02:21.163Z,11.30
2019-04-10T08:04:53.906Z,12.10
2019-04-10T08:07:30.368Z,13.73
2019-04-10T08:10:00.062Z,21.87
2019-04-10T08:12:39.496Z,15.07
2019-04-10T08:15:06.944Z,14.55
2019-04-10T08:17:39.067Z,16.37
2019-04-10T08:20:11.712Z,11.57
2019-04-10T08:22:44.807Z,24.43
2019-04-10T08:25:16.723Z,12.20
2019-04-10T08:27:50.066Z,13.07
2019-04-10T08:30:22.025Z,11.90
2019-04-10T08:33:00.753Z,17.73
2019-04-10T08:35:27.406Z,13.10
2019-04-10T08:37:59.291Z,12.13
2019-04-10T08:40:32.089Z,12.47
2019-04-10T08:43:04.165Z,12.50
2019-04-10T08:45:44.945Z,14.97
2019-04-10T08:48:10.080Z,13.53
2019-04-10T08:50:42.009Z,12.87
2019-04-10T08:53:13.916Z,11.80
2019-04-10T08:55:46.237Z,12.13
2019-04-10T08:58:18.807Z,12.65
2019-04-10T09:00:52.729Z,13.70
2019-04-10T09:03:25.021Z,12.10
2019-04-10T09:05:56.815Z,12.77
2019-04-10T09:08:28.828Z,24.47
2019-04-10T09:11:00.988Z,12.70
2019-04-10T09:13:32.836Z,16.67
2019-04-10T09:16:04.630Z,12.67
2019-04-10T09:18:37.215Z,16.73
2019-04-10T09:21:09.061Z,22.53
2019-04-10T09:23:47.291Z,24.43
2019-04-10T09:26:15.537Z,22.80
2019-04-10T09:28:49.481Z,23.30
2019-04-10T09:31:21.800Z,14.87
2019-04-10T09:33:53.753Z,13.17
2019-04-10T09:36:26.965Z,12.60
2019-04-10T09:38:59.081Z,15.00
2019-04-10T09:41:32.027Z,19.17
2019-04-10T09:44:04.528Z,15.13
2019-04-10T09:46:37.445Z,20.80
2019-04-10T09:49:09.539Z,14.37
2019-04-10T09:51:42.457Z,15.00
2019-04-10T09:54:14.124Z,14.30
2019-04-10T09:56:46.353Z,15.27
2019-04-10T09:59:18.094Z,13.70
2019-04-10T10:01:51.415Z,13.87
2019-04-10T10:04:23.658Z,13.60
2019-04-10T10:06:55.809Z,12.13
2019-04-10T10:09:29.256Z,12.73
2019-04-10T10:12:01.740Z,13.80
2019-04-10T10:14:33.438Z,20.13
2019-04-10T10:17:06.537Z,13.13
2019-04-10T10:19:40.620Z,14.73
2019-04-10T10:22:14.697Z,12.90
2019-04-10T10:24:46.872Z,14.67
2019-04-10T10:27:19.986Z,13.27
2019-04-10T10:29:53.556Z,14.80
2019-04-10T10:32:25.299Z,13.23
2019-04-10T10:34:58.989Z,21.90
2019-04-10T10:37:30.574Z,13.97
2019-04-10T10:40:03.455Z,21.87
2019-04-10T10:42:38.503Z,16.87
2019-04-10T10:45:12.504Z,12.37
2019-04-10T10:47:44.329Z,15.50
2019-04-10T10:50:17.181Z,14.20
2019-04-10T10:52:50.078Z,14.10
2019-04-10T10:55:23.281Z,14.98
2019-04-10T10:57:56.174Z,13.07
2019-04-10T11:00:29.321Z,12.23
2019-04-10T11:03:02.249Z,12.60
2019-04-10T11:05:37.188Z,11.73
2019-04-10T11:08:08.984Z,14.23
2019-04-10T11:10:41.314Z,18.43
2019-04-10T11:13:13.349Z,19.50
2019-04-10T11:15:45.960Z,15.23
2019-04-10T11:18:19.480Z,16.97
2019-04-10T11:20:52.287Z,14.77
2019-04-10T11:23:24.558Z,13.83
2019-04-10T11:25:57.699Z,11.33
2019-04-10T11:31:03.264Z,11.07
2019-04-10T11:33:37.291Z,11.95
2019-04-10T11:36:09.830Z,19.47
2019-04-10T11:38:42.894Z,12.07
2019-04-10T11:41:18.915Z,12.35
2019-04-10T11:43:52.602Z,12.43
2019-04-10T11:46:28.290Z,12.17
2019-04-10T11:48:57.806Z,11.40
2019-04-10T11:54:05.371Z,11.70
2019-04-10T11:56:38.375Z,16.60
2019-04-10T11:59:12.356Z,19.57
2019-04-10T12:01:46.206Z,11.73
2019-04-10T12:04:19.554Z,47.00
2019-04-10T12:06:54.054Z,11.67
2019-04-10T12:10:16.821Z,11.78
2019-04-10T12:11:57.391Z,10.97
2019-04-10T12:14:29.986Z,17.13
2019-04-10T12:17:01.915Z,17.53
2019-04-10T12:19:33.589Z,11.63
2019-04-10T12:22:05.917Z,12.07
2019-04-10T12:24:38.528Z,11.37
2019-04-10T12:27:10.567Z,11.83
2019-04-10T12:29:43.887Z,17.30
2019-04-10T12:32:16.659Z,12.68
2019-04-10T12:34:49.018Z,13.17
2019-04-10T12:37:21.011Z,14.03
2019-04-10T12:39:53.028Z,16.30
2019-04-10T12:42:24.559Z,13.23
2019-04-10T12:44:56.386Z,15.27
2019-04-10T12:47:28.525Z,12.03
2019-04-10T12:50:00.327Z,11.30
2019-04-10T12:52:34.571Z,12.90
2019-04-10T12:55:06.677Z,17.13
2019-04-10T12:57:39.157Z,12.00
2019-04-10T13:00:15.968Z,12.73
2019-04-10T13:02:47.778Z,11.53
2019-04-10T13:05:20.911Z,14.13
2019-04-10T13:07:53.976Z,11.88
2019-04-10T13:10:25.915Z,12.17
2019-04-10T13:12:57.762Z,11.23
2019-04-10T13:15:31.888Z,10.80
2019-04-10T13:18:03.936Z,13.57
2019-04-10T13:20:35.746Z,12.37
2019-04-10T13:23:07.237Z,12.47
2019-04-10T13:25:39.161Z,14.67
2019-04-10T13:28:11.570Z,11.80
2019-04-10T13:30:48.879Z,11.70
2019-04-10T13:33:17.313Z,11.90
2019-04-10T13:35:49.496Z,12.67
2019-04-10T13:38:27.628Z,12.25
2019-04-10T13:40:54.840Z,13.77
2019-04-10T13:43:27.660Z,11.87
2019-04-10T13:46:00.832Z,12.57
2019-04-10T13:48:33.445Z,11.80
2019-04-10T13:51:05.886Z,13.73
2019-04-10T13:53:38.306Z,16.63
2019-04-10T13:56:09.826Z,12.07
2019-04-10T13:58:42.617Z,16.47
2019-04-10T14:01:19.657Z,12.07
2019-04-10T14:03:52.437Z,11.43
2019-04-10T14:06:25.448Z,12.90
2019-04-10T14:09:12.235Z,12.17
2019-04-10T14:11:30.613Z,11.93
2019-04-10T14:14:02.523Z,11.40
2019-04-10T14:16:35.043Z,12.57
2019-04-10T14:19:07.738Z,13.73
2019-04-10T14:21:40.854Z,11.50
2019-04-10T14:24:13.247Z,13.38
2019-04-10T14:27:09.101Z,17.93
2019-04-10T14:29:40.973Z,11.57
2019-04-10T14:32:18.449Z,10.90
2019-04-10T14:34:50.544Z,14.53
2019-04-10T14:37:23.267Z,10.88
2019-04-10T14:39:55.781Z,14.43
2019-04-10T14:42:28.533Z,12.20
2019-04-10T14:45:01.394Z,12.10
2019-04-10T14:47:34.359Z,16.23
2019-04-10T14:50:07.526Z,13.22
2019-04-10T14:52:39.278Z,13.60
2019-04-10T14:55:12.455Z,13.50
2019-04-10T14:57:45.490Z,13.13
2019-04-10T15:00:31.163Z,12.97
2019-04-10T15:03:04.358Z,13.57
2019-04-10T15:05:46.487Z,13.13
2019-04-10T15:08:09.935Z,17.90
2019-04-10T15:10:43.948Z,22.23
2019-04-10T15:13:19.740Z,17.83
2019-04-10T15:15:50.391Z,14.13
2019-04-10T15:18:22.563Z,12.98
2019-04-10T15:20:54.457Z,13.03
2019-04-10T15:23:25.995Z,12.50
2019-04-10T15:25:59.881Z,16.63
2019-04-10T15:28:33.923Z,13.83
2019-04-10T15:31:06.840Z,12.73
2019-04-10T15:33:39.435Z,13.43
2019-04-10T15:36:11.601Z,15.00
2019-04-10T15:38:44.361Z,16.27
2019-04-10T15:41:18.979Z,13.93
2019-04-10T15:43:51.738Z,14.37
2019-04-10T15:46:24.794Z,14.93
2019-04-10T15:48:56.919Z,13.33
2019-04-10T15:51:30.020Z,12.73
2019-04-10T15:54:02.042Z,13.07
2019-04-10T15:56:34.140Z,13.43
2019-04-10T15:59:06.263Z,15.17
2019-04-10T16:01:37.886Z,12.85
2019-04-10T16:04:09.866Z,13.33
2019-04-10T16:06:41.926Z,14.30
2019-04-10T16:09:15.067Z,14.60
2019-04-10T16:12:14.618Z,13.40
2019-04-10T16:14:46.629Z,13.73
2019-04-10T16:17:41.945Z,16.27
2019-04-10T16:20:33.611Z,16.70
2019-04-10T16:23:14.907Z,13.93
2019-04-10T16:25:52.389Z,13.27
2019-04-10T16:28:24.133Z,14.70
2019-04-10T16:30:57.202Z,15.80
2019-04-10T16:33:29.422Z,14.15
2019-04-10T16:36:03.078Z,14.77
2019-04-10T16:38:34.864Z,14.93
2019-04-10T16:41:06.651Z,15.43
2019-04-10T16:43:38.349Z,14.77
2019-04-10T16:46:11.121Z,20.60
2019-04-10T16:48:44.210Z,15.27
2019-04-10T16:51:17.242Z,15.57
2019-04-10T16:53:49.932Z,17.83
2019-04-10T16:56:25.428Z,16.50
2019-04-10T16:58:58.474Z,19.03
2019-04-10T17:01:30.950Z,17.83
2019-04-10T17:04:05.021Z,15.57
2019-04-10T17:06:36.953Z,19.80
2019-04-10T17:09:12.254Z,17.13
2019-04-10T17:11:45.134Z,22.83
2019-04-10T17:14:17.547Z,17.37
2019-04-10T17:16:50.314Z,17.83
2019-04-10T17:19:23.598Z,18.43
2019-04-10T17:21:56.877Z,19.53
2019-04-10T17:24:29.302Z,17.67
2019-04-10T17:27:01.503Z,18.45
2019-04-10T17:29:33.591Z,15.67
2019-04-10T17:32:06.981Z,15.80
2019-04-10T17:34:38.998Z,17.63
2019-04-10T17:37:11.931Z,16.37
2019-04-10T17:39:43.921Z,16.37
2019-04-10T17:42:16.582Z,15.30
2019-04-10T17:44:49.969Z,16.83
2019-04-10T17:47:22.877Z,16.33
2019-04-10T17:49:55.946Z,17.00
2019-04-10T17:52:28.107Z,22.07
2019-04-10T17:55:00.886Z,22.20
2019-04-10T17:57:38.552Z,17.70
2019-04-10T18:00:15.890Z,16.90
2019-04-10T18:02:48.556Z,17.43
2019-04-10T18:05:20.511Z,20.08
2019-04-10T18:07:52.876Z,18.87
2019-04-10T18:10:34.376Z,19.40
2019-04-10T18:13:00.879Z,19.33
2019-04-10T18:15:35.826Z,21.30
2019-04-10T18:18:08.303Z,20.40
2019-04-10T18:20:42.236Z,20.73
2019-04-10T18:23:15.516Z,23.00
2019-04-10T18:25:47.337Z,21.07
2019-04-10T18:28:21.299Z,21.13
2019-04-10T18:30:54.486Z,21.13
2019-04-10T18:33:26.533Z,21.00
2019-04-10T18:35:59.462Z,22.10
2019-04-10T18:38:31.741Z,21.00
2019-04-10T18:41:06.876Z,25.67
2019-04-10T18:43:37.740Z,21.80
2019-04-10T18:46:13.392Z,22.67
2019-04-10T18:48:45.596Z,20.77
2019-04-10T18:51:16.365Z,20.30
2019-04-10T18:53:49.288Z,22.03
2019-04-10T18:56:22.218Z,19.57
2019-04-10T18:59:06.726Z,22.87
2019-04-10T19:01:56.082Z,21.70
2019-04-10T19:04:41.747Z,25.08
2019-04-10T19:07:15.382Z,21.70
2019-04-10T19:09:47.235Z,21.77
2019-04-10T19:12:19.301Z,20.83
2019-04-10T19:14:51.144Z,21.87
2019-04-10T19:17:23.068Z,21.23
2019-04-10T19:19:56.754Z,26.27
2019-04-10T19:22:28.574Z,25.37
2019-04-10T19:25:00.744Z,23.03
2019-04-10T19:27:32.407Z,22.67
2019-04-10T19:30:06.699Z,21.20
2019-04-10T19:32:38.792Z,21.60
2019-04-10T19:35:10.902Z,23.10
2019-04-10T19:37:43.325Z,19.97
2019-04-10T19:40:15.909Z,20.88
2019-04-10T19:42:47.742Z,18.73
2019-04-10T19:45:19.569Z,18.73
2019-04-10T19:47:52.721Z,19.30
2019-04-10T19:50:25.533Z,19.73
2019-04-10T19:52:57.163Z,17.70
2019-04-10T19:55:29.626Z,17.47
2019-04-10T19:58:01.764Z,17.80
2019-04-10T20:00:36.753Z,17.20
2019-04-10T20:03:08.653Z,17.20
2019-04-10T20:05:41.513Z,20.57
2019-04-10T20:08:13.281Z,17.57
2019-04-10T20:10:45.705Z,17.37
2019-04-10T20:13:18.703Z,19.05
2019-04-10T20:15:50.958Z,18.10
2019-04-10T20:18:23.002Z,17.82
2019-04-10T20:20:55.464Z,17.50
2019-04-10T20:23:27.898Z,19.97
2019-04-10T20:26:01.353Z,17.82
2019-04-10T20:28:33.159Z,18.97
2019-04-10T20:31:07.009Z,19.67
2019-04-10T20:33:38.911Z,19.50
2019-04-10T20:36:11.058Z,19.62
2019-04-10T20:38:43.072Z,19.33
2019-04-10T20:41:16.315Z,21.33
2019-04-10T20:43:49.584Z,18.77
2019-04-10T20:46:22.250Z,19.67
2019-04-10T20:48:55.075Z,19.30
2019-04-10T20:51:26.864Z,20.27
2019-04-10T20:53:58.625Z,19.83
2019-04-10T20:56:30.697Z,20.33
2019-04-10T20:59:03.506Z,19.67
2019-04-10T21:01:35.186Z,19.57
2019-04-10T21:04:07.849Z,20.07
2019-04-10T21:06:41.934Z,19.50
2019-04-10T21:09:13.459Z,19.10
2019-04-10T21:11:58.059Z,19.47
2019-04-10T21:14:21.103Z,18.60
2019-04-10T21:16:53.002Z,18.95
2019-04-10T21:19:24.925Z,18.60
2019-04-10T21:21:57.512Z,17.97
2019-04-10T21:24:31.545Z,18.57
2019-04-10T21:27:03.720Z,17.77
2019-04-10T21:30:07.271Z,18.33
2019-04-10T21:33:12.127Z,19.53
2019-04-10T21:35:45.565Z,18.43
2019-04-10T21:38:17.660Z,17.87
2019-04-10T21:40:49.503Z,17.57
2019-04-10T21:43:22.787Z,17.27
2019-04-10T21:45:55.375Z,17.70
2019-04-10T21:48:27.562Z,16.97
2019-04-10T21:51:00.582Z,17.30
2019-04-10T21:53:34.091Z,16.87
2019-04-10T21:56:08.510Z,17.23
2019-04-10T21:58:40.853Z,16.83
2019-04-10T22:01:13.498Z,16.53
2019-04-10T22:03:45.621Z,16.53
2019-04-10T22:06:49.433Z,16.90
2019-04-10T22:09:34.897Z,16.87
2019-04-10T22:12:25.961Z,17.73
2019-04-10T22:14:54.041Z,16.00
2019-04-10T22:17:26.814Z,16.70
2019-04-10T22:19:59.443Z,17.13
2019-04-10T22:22:32.957Z,16.20
2019-04-10T22:25:05.341Z,17.25
2019-04-10T22:27:37.455Z,16.13
2019-04-10T22:30:10.452Z,17.20
2019-04-10T22:32:42.842Z,16.93
2019-04-10T22:35:15.247Z,18.40
2019-04-10T22:37:48.336Z,18.20
2019-04-10T22:40:20.160Z,18.25
2019-04-10T22:42:53.264Z,18.37
2019-04-10T22:45:29.227Z,16.70
2019-04-10T22:48:01.738Z,18.00
2019-04-10T22:50:34.511Z,19.23
2019-04-10T22:53:06.856Z,19.00
2019-04-10T22:55:42.614Z,19.70
2019-04-10T22:58:14.967Z,19.77
2019-04-10T23:00:48.450Z,19.00
2019-04-10T23:03:20.331Z,19.83
2019-04-10T23:05:53.069Z,20.03
2019-04-10T23:08:25.398Z,22.50
2019-04-10T23:10:57.454Z,21.90
2019-04-10T23:13:30.130Z,20.60
2019-04-10T23:16:02.041Z,22.83
2019-04-10T23:18:33.929Z,22.33
2019-04-10T23:21:06.101Z,22.97
2019-04-10T23:23:39.025Z,23.87
2019-04-10T23:26:11.130Z,22.45
2019-04-10T23:28:43.999Z,21.20
2019-04-10T23:31:15.632Z,20.65
2019-04-10T23:33:48.272Z,20.97
2019-04-10T23:36:20.269Z,21.37
2019-04-10T23:38:52.170Z,19.87
2019-04-10T23:41:25.479Z,21.93
2019-04-10T23:43:57.793Z,19.57
2019-04-10T23:46:30.456Z,19.67
2019-04-10T23:49:03.937Z,19.50
2019-04-10T23:51:39.098Z,21.73
2019-04-10T23:54:11.193Z,25.32
2019-04-10T23:56:44.785Z,19.53
2019-04-10T23:59:18.248Z,18.83
